Time;durP1;ratioP1;P1;durP2;ratioP2;P2;SDS_P1;SDS_P2;PMS_P1;PMS_P2;Temp;Humidity;BMP_temperature;BMP_pressure;BME280_temperature;BME280_humidity;BME280_pressure;Samples;Min_cycle;Max_cycle;Signal;HPM_P1;HPM_P2
2023/09/22 00:00:14;;;;;;;4.47;1.58;;;;;;;10.75;51.01;97605.63;6195526;28;20050;-69
2023/09/22 00:03:18;;;;;;;2.65;1.20;;;;;;;10.82;50.77;97598.28;6195107;28;20058;-69
2023/09/22 00:06:22;;;;;;;;;;;;;;;10.87;50.16;97603.25;6198611;28;20050;-68
2023/09/22 00:09:25;;;;;;;4.38;1.48;;;;;;;11.01;50.07;97606.00;6198456;28;20459;-68
2023/09/22 00:12:32;;;;;;;1.60;1.00;;;;;;;11.07;49.81;97604.81;6198530;28;20042;-69
2023/09/22 00:15:35;;;;;;;1.20;0.93;;;;;;;11.10;49.50;97594.97;6199180;28;20053;-70
2023/09/22 00:18:41;;;;;;;1.95;1.38;;;;;;;11.21;49.31;97608.41;6179077;28;20049;-68
2023/09/22 00:21:43;;;;;;;0.90;0.80;;;;;;;11.17;49.28;97606.84;6195811;28;20065;-68
2023/09/22 00:24:44;;;;;;;2.88;1.42;;;;;;;11.23;49.12;97606.50;6195173;28;20506;-69
2023/09/22 00:27:45;;;;;;;1.60;1.00;;;;;;;11.21;48.88;97603.13;6194583;28;20057;-68
2023/09/22 00:30:47;;;;;;;2.50;1.50;;;;;;;11.40;48.45;97610.00;6194702;28;20533;-69
2023/09/22 00:33:52;;;;;;;1.30;1.02;;;;;;;11.37;48.53;97615.44;6195050;28;20046;-70
2023/09/22 00:36:59;;;;;;;3.45;1.20;;;;;;;11.36;48.59;97611.94;6195244;28;20046;-68
2023/09/22 00:40:02;;;;;;;2.00;1.00;;;;;;;11.31;48.68;97603.44;6195058;28;20529;-68
2023/09/22 00:43:15;;;;;;;2.58;1.02;;;;;;;11.36;48.74;97605.84;6195140;28;20038;-68
2023/09/22 00:46:23;;;;;;;3.17;1.05;;;;;;;11.38;48.49;97603.94;6199612;28;20046;-68
2023/09/22 00:49:25;;;;;;;1.90;0.98;;;;;;;11.45;48.23;97605.31;6181097;28;20054;-70
2023/09/22 00:52:34;;;;;;;1.98;1.27;;;;;;;11.54;47.86;97599.50;6199146;28;20132;-68
2023/09/22 00:55:36;;;;;;;3.08;1.10;;;;;;;11.59;47.64;97589.56;6198592;28;20065;-68
2023/09/22 00:58:38;;;;;;;2.95;1.27;;;;;;;11.76;47.63;97598.28;6197180;28;20042;-68
2023/09/22 01:01:43;;;;;;;3.90;1.38;;;;;;;11.78;47.27;97601.69;6198401;28;20433;-68
2023/09/22 01:04:47;;;;;;;2.60;1.50;;;;;;;11.77;47.46;97598.19;6220736;28;20042;-69
2023/09/22 01:07:52;;;;;;;2.30;1.40;;;;;;;11.81;47.40;97601.50;6221381;28;20042;-69
2023/09/22 01:10:56;;;;;;;3.10;1.30;;;;;;;11.83;47.44;97604.88;6222891;28;20531;-70
2023/09/22 01:14:03;;;;;;;4.85;3.28;;;;;;;11.78;47.79;97604.34;6223013;28;20046;-69
2023/09/22 01:17:08;;;;;;;4.60;2.42;;;;;;;11.74;47.88;97608.06;6222850;28;20046;-68
2023/09/22 01:20:12;;;;;;;5.03;2.10;;;;;;;11.67;47.88;97611.06;6222457;28;20037;-69
2023/09/22 01:23:17;;;;;;;3.17;1.50;;;;;;;11.67;47.91;97604.94;6204387;28;20058;-69
2023/09/22 01:26:22;;;;;;;5.95;2.75;;;;;;;11.65;48.09;97612.09;6221724;28;20418;-70
2023/09/22 01:29:29;;;;;;;3.15;2.20;;;;;;;11.76;47.60;97611.47;6205154;28;20532;-70
2023/09/22 01:32:33;;;;;;;4.30;1.60;;;;;;;11.74;47.63;97611.53;6221869;28;20533;-70
2023/09/22 01:35:39;;;;;;;4.32;1.50;;;;;;;11.85;47.22;97609.16;6222394;28;20065;-69
2023/09/22 01:38:43;;;;;;;1.50;1.40;;;;;;;11.67;47.56;97599.66;6223392;28;20042;-69
2023/09/22 01:41:47;;;;;;;2.20;1.33;;;;;;;11.66;47.61;97603.22;6204910;28;20116;-70
2023/09/22 01:44:51;;;;;;;;;;;;;;;11.49;47.45;97612.09;6222836;28;20045;-68
2023/09/22 01:47:54;;;;;;;1.95;1.05;;;;;;;11.33;48.19;97608.66;6189362;28;19921;-69
2023/09/22 01:51:03;;;;;;;3.45;1.65;;;;;;;11.32;48.26;97614.84;6222098;28;20421;-70
2023/09/22 01:54:05;;;;;;;2.45;1.88;;;;;;;11.30;48.52;97616.72;6221356;28;20335;-70
2023/09/22 01:57:09;;;;;;;2.67;1.25;;;;;;;11.21;48.47;97618.94;6220074;28;20061;-69
2023/09/22 02:00:13;;;;;;;3.08;2.10;;;;;;;11.16;48.78;97615.69;6221964;28;20041;-70
2023/09/22 02:03:14;;;;;;;3.03;1.77;;;;;;;11.18;48.90;97634.03;6220770;28;20050;-68
2023/09/22 02:06:16;;;;;;;1.48;1.20;;;;;;;11.10;49.00;97608.16;6220801;28;20425;-69
2023/09/22 02:09:17;;;;;;;3.00;1.65;;;;;;;11.21;49.14;97631.25;6221351;28;20057;-69
2023/09/22 02:12:21;;;;;;;;;;;;;;;11.20;48.74;97627.75;6221818;28;20049;-69
2023/09/22 02:15:22;;;;;;;3.50;2.00;;;;;;;11.26;49.10;97631.00;6203827;28;19917;-69
2023/09/22 02:18:29;;;;;;;3.53;1.80;;;;;;;11.35;49.17;97635.75;6221422;28;20049;-69
2023/09/22 02:21:30;;;;;;;2.72;1.75;;;;;;;11.34;48.97;97636.69;6220407;28;20054;-70
2023/09/22 02:24:52;;;;;;;3.97;1.40;;;;;;;11.36;49.14;97642.72;6203849;28;20044;-71
2023/09/22 02:27:57;;;;;;;;;;;;;;;11.47;48.57;97640.34;6221413;28;20045;-69
2023/09/22 02:30:58;;;;;;;2.53;1.40;;;;;;;11.60;48.62;97629.94;6221080;28;20152;-70
2023/09/22 02:34:02;;;;;;;1.80;1.38;;;;;;;11.66;48.48;97635.72;6220644;28;20176;-69
2023/09/22 02:37:06;;;;;;;4.28;1.80;;;;;;;11.73;48.31;97635.38;6220696;28;20080;-69
2023/09/22 02:40:08;;;;;;;3.55;1.88;;;;;;;11.81;48.22;97638.44;6220090;28;20042;-69
2023/09/22 02:43:12;;;;;;;1.77;1.40;;;;;;;12.01;47.96;97642.56;6220924;28;20041;-69
2023/09/22 02:46:13;;;;;;;3.92;2.05;;;;;;;12.15;47.69;97641.78;6202250;28;20156;-69
2023/09/22 02:49:20;;;;;;;4.75;2.97;;;;;;;12.17;47.76;97634.59;6220703;28;20046;-71
2023/09/22 02:52:28;;;;;;;4.25;2.20;;;;;;;12.21;47.58;97620.28;6220738;28;20046;-71
2023/09/22 02:55:34;;;;;;;2.42;1.73;;;;;;;12.30;47.39;97639.06;6220527;28;20524;-69
2023/09/22 02:58:39;;;;;;;4.13;2.47;;;;;;;12.42;47.47;97639.25;6219790;28;20057;-71
2023/09/22 03:01:43;;;;;;;3.67;2.30;;;;;;;12.51;46.91;97644.84;6219975;28;20053;-70
2023/09/22 03:04:44;;;;;;;8.80;2.50;;;;;;;12.56;47.19;97640.13;6220373;28;20076;-71
2023/09/22 03:07:52;;;;;;;3.42;2.15;;;;;;;12.64;47.20;97644.09;6219127;28;20060;-70
2023/09/22 03:10:57;;;;;;;3.25;2.08;;;;;;;12.75;47.11;97647.78;6220437;28;20037;-69
2023/09/22 03:14:03;;;;;;;4.72;2.35;;;;;;;12.81;47.36;97646.56;6220084;28;20117;-69
2023/09/22 03:17:09;;;;;;;4.55;1.85;;;;;;;12.93;47.16;97645.78;6219512;28;20545;-69
2023/09/22 03:20:12;;;;;;;3.97;2.10;;;;;;;13.14;47.06;97653.34;6219543;28;20037;-70
2023/09/22 03:23:13;;;;;;;3.45;1.88;;;;;;;13.27;46.85;97646.34;6219285;28;20049;-70
2023/09/22 03:26:20;;;;;;;;;;;;;;;13.35;46.64;97657.28;6220256;28;20041;-70
2023/09/22 03:29:26;;;;;;;6.95;2.50;;;;;;;13.43;46.54;97651.53;6219966;28;19928;-69
2023/09/22 03:32:30;;;;;;;2.20;1.70;;;;;;;13.51;46.43;97646.59;6219907;28;20136;-69
2023/09/22 03:35:36;;;;;;;2.90;1.58;;;;;;;13.57;46.35;97655.94;6219687;28;20069;-69
2023/09/22 03:38:41;;;;;;;3.08;2.08;;;;;;;13.59;46.20;97654.03;6202683;28;20045;-69
2023/09/22 03:41:46;;;;;;;2.75;2.08;;;;;;;13.73;46.03;97656.63;6219870;28;20050;-70
2023/09/22 03:44:49;;;;;;;4.38;1.88;;;;;;;13.76;45.39;97658.22;6219898;28;20049;-68
2023/09/22 03:47:53;;;;;;;;;;;;;;;13.83;45.25;97663.00;6202099;28;20164;-70
2023/09/22 03:50:57;;;;;;;5.03;2.00;;;;;;;14.09;44.45;97658.63;6218859;28;19921;-69
2023/09/22 03:54:02;;;;;;;4.00;2.03;;;;;;;14.23;43.88;97660.38;6219892;28;20042;-69
2023/09/22 03:57:06;;;;;;;5.05;1.98;;;;;;;14.34;43.79;97670.22;6219254;28;20056;-69
2023/09/22 04:00:17;;;;;;;4.43;2.38;;;;;;;14.47;43.45;97667.63;6218714;28;20042;-69
2023/09/22 04:03:21;;;;;;;2.38;1.80;;;;;;;14.62;43.28;97661.28;6194918;28;20053;-68
2023/09/22 04:06:22;;;;;;;;;;;;;;;14.76;43.20;97674.44;6194160;28;20073;-69
2023/09/22 04:09:28;;;;;;;3.35;1.67;;;;;;;14.80;43.04;97681.25;6195136;28;19921;-69
2023/09/22 04:12:33;;;;;;;4.93;1.67;;;;;;;14.87;42.99;97675.50;6195085;28;20038;-68
2023/09/22 04:15:40;;;;;;;4.10;1.95;;;;;;;15.11;42.72;97673.78;6194838;28;20046;-70
2023/09/22 04:18:41;;;;;;;3.55;1.80;;;;;;;15.18;42.71;97663.59;6195429;28;20073;-70
2023/09/22 04:21:48;;;;;;;2.85;1.50;;;;;;;15.32;42.53;97675.88;6199679;28;20046;-70
2023/09/22 04:25:00;;;;;;;2.20;1.52;;;;;;;15.54;41.94;97673.38;6198379;28;20046;-70
2023/09/22 04:28:17;;;;;;;4.05;1.67;;;;;;;15.66;41.96;97672.50;6199528;28;20054;-69
2023/09/22 04:31:19;;;;;;;2.85;1.90;;;;;;;15.70;41.97;97692.56;6199446;28;20053;-70
2023/09/22 04:34:25;;;;;;;4.55;1.70;;;;;;;15.87;41.65;97685.16;6199685;28;20434;-70
2023/09/22 04:37:32;;;;;;;2.38;1.58;;;;;;;15.96;41.57;97681.84;6199552;28;20049;-70
2023/09/22 04:40:39;;;;;;;3.83;1.92;;;;;;;16.09;41.31;97679.97;6197807;28;20050;-69
2023/09/22 04:43:43;;;;;;;1.67;1.55;;;;;;;16.20;41.23;97683.66;6199577;28;20042;-70
2023/09/22 04:46:47;;;;;;;4.32;1.63;;;;;;;16.24;41.30;97675.31;6199246;28;20038;-69
2023/09/22 04:49:50;;;;;;;4.75;2.17;;;;;;;16.52;40.66;97679.41;6199330;28;20462;-68
2023/09/22 04:52:58;;;;;;;3.28;1.83;;;;;;;16.84;40.43;97678.75;6198895;28;20038;-70
2023/09/22 04:56:06;;;;;;;3.20;2.00;;;;;;;17.39;39.50;97684.25;6199116;28;20088;-69
2023/09/22 04:59:10;;;;;;;4.05;1.73;;;;;;;17.92;38.26;97693.25;6198670;28;20114;-69
2023/09/22 05:02:12;;;;;;;3.60;2.22;;;;;;;18.30;37.62;97681.25;6197863;28;20113;-69
2023/09/22 05:05:18;;;;;;;2.55;1.95;;;;;;;18.72;36.90;97691.09;6198832;28;20502;-69
2023/09/22 05:08:21;;;;;;;3.65;1.70;;;;;;;19.02;36.30;97699.16;6198358;28;20422;-70
2023/09/22 05:11:22;;;;;;;2.75;1.80;;;;;;;19.33;36.21;97695.63;6198038;28;20065;-68
2023/09/22 05:14:26;;;;;;;4.57;2.28;;;;;;;19.91;34.88;97687.84;6197417;28;20042;-68
2023/09/22 05:17:30;;;;;;;3.47;1.67;;;;;;;20.26;34.37;97694.50;6198513;28;20426;-69
2023/09/22 05:20:35;;;;;;;3.38;1.55;;;;;;;20.63;33.97;97703.50;6198465;28;20054;-69
2023/09/22 05:23:42;;;;;;;3.40;1.73;;;;;;;20.95;33.33;97705.03;6198390;28;20042;-69
2023/09/22 05:26:46;;;;;;;2.72;1.85;;;;;;;21.26;32.82;97694.94;6198188;28;20054;-69
2023/09/22 05:29:51;;;;;;;3.25;2.05;;;;;;;21.95;31.94;97688.25;6197735;28;20042;-69
2023/09/22 05:32:58;;;;;;;2.42;1.70;;;;;;;24.69;28.68;97705.66;6198017;28;20042;-69
2023/09/22 05:36:05;;;;;;;3.90;1.92;;;;;;;26.67;26.17;97688.56;6197308;28;20069;-69
2023/09/22 05:39:11;;;;;;;3.78;2.08;;;;;;;26.35;26.05;97721.00;6198171;28;20054;-69
2023/09/22 05:42:15;;;;;;;2.95;1.95;;;;;;;25.84;27.08;97701.72;6197271;28;20051;-69
2023/09/22 05:45:19;;;;;;;2.92;1.77;;;;;;;25.34;28.08;97705.59;6197898;28;20486;-69
2023/09/22 05:48:23;;;;;;;5.53;2.22;;;;;;;24.53;28.65;97696.56;6197110;28;20061;-69
2023/09/22 05:51:24;;;;;;;9.07;5.13;;;;;;;23.92;29.13;97705.81;6197230;28;20047;-69
2023/09/22 05:54:28;;;;;;;8.10;4.97;;;;;;;23.51;30.07;97713.69;6197824;28;20056;-69
2023/09/22 05:57:38;;;;;;;8.80;5.00;;;;;;;23.42;29.99;97711.97;6197518;28;20043;-69
2023/09/22 06:00:39;;;;;;;6.18;3.58;;;;;;;23.01;30.47;97703.66;6197879;28;20189;-68
2023/09/22 06:03:47;;;;;;;8.90;4.38;;;;;;;22.69;31.38;97706.91;6197454;28;20046;-70
2023/09/22 06:06:53;;;;;;;5.70;3.55;;;;;;;22.53;31.66;97694.19;6196782;28;20057;-68
2023/09/22 06:09:54;;;;;;;8.32;3.08;;;;;;;22.23;31.76;97696.28;6196611;28;20189;-70
2023/09/22 06:13:00;;;;;;;3.08;2.42;;;;;;;21.75;32.54;97700.09;6197555;28;20042;-69
2023/09/22 06:16:06;;;;;;;4.93;2.60;;;;;;;21.53;33.22;97695.97;6197415;28;20043;-69
2023/09/22 06:19:12;;;;;;;6.60;2.25;;;;;;;21.53;33.40;97694.13;6196503;28;20050;-68
2023/09/22 06:22:13;;;;;;;3.83;2.53;;;;;;;21.69;33.66;97695.34;6195485;28;20054;-69
2023/09/22 06:25:15;;;;;;;2.92;2.28;;;;;;;22.02;33.27;97703.72;6196788;28;20449;-69
2023/09/22 06:28:20;;;;;;;3.28;2.38;;;;;;;22.40;32.59;97699.97;6196658;28;20042;-70
2023/09/22 06:31:24;;;;;;;3.55;3.20;;;;;;;23.14;31.75;97708.63;6196719;28;20417;-69
2023/09/22 06:34:26;;;;;;;4.00;2.63;;;;;;;24.39;30.40;97702.56;6196574;28;20201;-69
2023/09/22 06:37:29;;;;;;;5.88;2.65;;;;;;;26.26;27.91;97711.28;6196721;28;20133;-68
2023/09/22 06:40:39;;;;;;;3.20;2.25;;;;;;;29.46;24.58;97711.75;6195691;28;20137;-69
2023/09/22 06:43:46;;;;;;;4.95;2.60;;;;;;;31.19;23.23;97712.31;6196335;28;20418;-68
2023/09/22 06:46:50;;;;;;;4.15;3.10;;;;;;;31.66;22.24;97726.72;6196707;28;20426;-68
2023/09/22 06:49:59;;;;;;;12.82;3.60;;;;;;;30.68;23.64;97721.03;6196409;28;20050;-69
2023/09/22 06:53:03;;;;;;;7.50;3.20;;;;;;;29.75;24.53;97715.28;6196663;28;20050;-69
2023/09/22 06:56:09;;;;;;;8.65;2.92;;;;;;;29.14;25.05;97712.38;6194918;28;20058;-69
2023/09/22 06:59:16;;;;;;;5.30;4.13;;;;;;;27.81;26.60;97710.94;6196118;28;20050;-68
2023/09/22 07:02:23;;;;;;;6.00;3.67;;;;;;;26.07;28.72;97711.72;6196167;28;20046;-70
2023/09/22 07:05:26;;;;;;;6.47;3.28;;;;;;;24.88;30.66;97705.28;6196104;28;20558;-68
2023/09/22 07:08:29;;;;;;;6.82;4.65;;;;;;;24.65;31.22;97705.97;6195887;28;20042;-70
2023/09/22 07:11:39;;;;;;;7.55;4.20;;;;;;;25.54;30.35;97701.50;6194828;28;20042;-68
2023/09/22 07:14:46;;;;;;;4.28;2.78;;;;;;;27.87;27.02;97700.22;6195780;28;20606;-69
2023/09/22 07:17:48;;;;;;;6.03;3.58;;;;;;;28.54;26.13;97715.38;6194674;28;20565;-68
2023/09/22 07:20:49;;;;;;;3.83;3.28;;;;;;;28.23;26.11;97704.81;6195548;28;20038;-68
2023/09/22 07:23:51;;;;;;;5.35;3.20;;;;;;;27.81;26.56;97705.53;6195544;28;20038;-69
2023/09/22 07:26:54;;;;;;;6.38;2.80;;;;;;;29.81;24.57;97711.78;6195456;28;20497;-69
2023/09/22 07:29:58;;;;;;;4.90;2.97;;;;;;;33.20;21.25;97702.22;6195547;28;20046;-68
2023/09/22 07:33:01;;;;;;;4.25;2.60;;;;;;;35.98;18.45;97707.50;6195692;28;20045;-70
2023/09/22 07:36:02;;;;;;;6.88;2.70;;;;;;;38.03;16.37;97722.03;6195027;28;20050;-67
2023/09/22 07:39:04;;;;;;;5.43;2.40;;;;;;;39.85;15.07;97720.44;6194900;28;20050;-67
2023/09/22 07:42:07;;;;;;;6.05;2.83;;;;;;;38.12;16.13;97717.75;6195068;28;20058;-67
2023/09/22 07:45:09;;;;;;;5.00;3.72;;;;;;;38.06;16.58;97721.53;6195451;28;20149;-68
2023/09/22 07:48:12;;;;;;;4.30;2.72;;;;;;;36.85;17.24;97717.44;6195333;28;20042;-69
2023/09/22 07:51:16;;;;;;;5.35;3.08;;;;;;;36.52;17.46;97712.69;6195249;28;20045;-68
2023/09/22 07:54:24;;;;;;;4.78;3.05;;;;;;;38.46;16.29;97720.38;6197401;28;20502;-69
2023/09/22 07:57:30;;;;;;;3.83;2.53;;;;;;;40.61;14.22;97734.53;6200527;28;20038;-67
2023/09/22 08:00:46;;;;;;;3.72;2.33;;;;;;;41.50;13.59;97735.22;6198812;28;20058;-69
2023/09/22 08:03:48;;;;;;;2.45;2.25;;;;;;;40.87;13.76;97729.09;6199713;28;20074;-68
2023/09/22 08:06:52;;;;;;;3.97;2.17;;;;;;;39.84;14.61;97714.13;6200290;28;20050;-68
2023/09/22 08:09:56;;;;;;;3.90;2.00;;;;;;;39.31;15.15;97709.63;6200064;28;20038;-68
2023/09/22 08:12:57;;;;;;;8.05;2.55;;;;;;;38.36;15.98;97710.91;6200159;28;20497;-68
2023/09/22 08:16:06;;;;;;;6.07;2.60;;;;;;;38.17;15.89;97701.31;6200108;28;20034;-68
2023/09/22 08:19:10;;;;;;;2.40;2.20;;;;;;;39.04;15.09;97694.00;6199854;28;20057;-68
2023/09/22 08:22:16;;;;;;;3.30;2.42;;;;;;;38.81;15.30;97712.47;6199409;28;20429;-68
2023/09/22 08:25:20;;;;;;;4.15;2.80;;;;;;;37.44;16.26;97697.81;6199445;28;20541;-68
2023/09/22 08:28:23;;;;;;;4.78;2.33;;;;;;;36.20;17.33;97707.69;6198981;28;20430;-68
2023/09/22 08:31:29;;;;;;;5.00;2.58;;;;;;;36.55;17.26;97702.13;6199674;28;20122;-68
2023/09/22 08:34:38;;;;;;;4.45;2.53;;;;;;;34.45;18.88;97687.38;6199257;28;20061;-68
2023/09/22 08:37:43;;;;;;;3.28;2.50;;;;;;;32.45;21.24;97685.78;6199525;28;20042;-69
2023/09/22 08:40:48;;;;;;;6.38;3.15;;;;;;;31.14;22.66;97687.66;6199559;28;20073;-68
2023/09/22 08:43:53;;;;;;;4.57;3.10;;;;;;;29.99;23.85;97682.22;6199465;28;20042;-68
2023/09/22 08:46:58;;;;;;;4.10;2.75;;;;;;;29.52;24.66;97683.84;6198360;28;20061;-69
2023/09/22 08:49:59;;;;;;;6.10;4.60;;;;;;;29.24;24.80;97680.31;6198685;28;20506;-70
2023/09/22 08:53:02;;;;;;;5.93;3.92;;;;;;;28.76;25.67;97688.25;6198949;28;20540;-69
2023/09/22 08:56:09;;;;;;;5.40;3.92;;;;;;;27.78;27.00;97685.09;6198991;28;20042;-70
2023/09/22 08:59:13;;;;;;;9.15;3.78;;;;;;;26.96;28.05;97675.16;6198311;28;20050;-70
2023/09/22 09:02:17;;;;;;;7.05;4.10;;;;;;;26.48;28.73;97674.53;6198906;28;20042;-70
2023/09/22 09:05:29;;;;;;;4.80;3.40;;;;;;;25.85;29.66;97681.84;6198016;28;20050;-70
2023/09/22 09:08:31;;;;;;;7.95;3.58;;;;;;;25.70;30.04;97667.38;6198758;28;20061;-68
2023/09/22 09:11:35;;;;;;;6.57;3.60;;;;;;;25.90;30.18;97678.59;6198867;28;20046;-68
2023/09/22 09:14:49;;;;;;;7.32;3.60;;;;;;;27.19;28.53;97674.28;6199520;28;20042;-68
2023/09/22 09:18:08;;;;;;;6.63;4.15;;;;;;;27.51;27.77;97678.47;6200052;28;20185;-68
2023/09/22 09:21:14;;;;;;;9.35;4.50;;;;;;;27.03;28.20;97683.34;6198037;28;20505;-69
2023/09/22 09:24:23;;;;;;;6.35;3.88;;;;;;;26.42;29.14;97683.34;6198180;28;20158;-69
2023/09/22 09:27:27;;;;;;;6.60;4.03;;;;;;;26.02;29.73;97687.16;6198865;28;20502;-69
2023/09/22 09:30:32;;;;;;;8.48;5.30;;;;;;;26.12;29.70;97676.97;6198139;28;20048;-69
2023/09/22 09:33:33;;;;;;;5.67;3.83;;;;;;;26.01;30.35;97677.38;6197775;28;20053;-68
2023/09/22 09:36:34;;;;;;;3.70;2.90;;;;;;;25.76;30.30;97672.94;6197838;28;20461;-69
2023/09/22 09:39:44;;;;;;;8.02;3.40;;;;;;;25.53;30.84;97670.19;6197635;28;20528;-70
2023/09/22 09:42:53;;;;;;;4.65;3.35;;;;;;;25.72;30.71;97676.97;6197880;28;20058;-68
2023/09/22 09:45:57;;;;;;;4.47;3.72;;;;;;;27.93;27.75;97668.84;6197908;28;20042;-69
2023/09/22 09:49:06;;;;;;;6.70;4.20;;;;;;;29.92;25.41;97675.94;6197847;28;20046;-70
2023/09/22 09:52:13;;;;;;;5.07;3.70;;;;;;;30.03;24.88;97668.22;6196665;28;20072;-69
2023/09/22 09:55:21;;;;;;;5.80;3.63;;;;;;;30.74;24.15;97644.13;6197882;28;20493;-70
2023/09/22 09:58:31;;;;;;;5.00;3.42;;;;;;;31.39;23.20;97678.84;6197595;28;20465;-68
2023/09/22 10:01:39;;;;;;;5.43;3.55;;;;;;;30.08;24.37;97673.88;6197150;28;20054;-69
2023/09/22 10:04:42;;;;;;;5.60;3.80;;;;;;;28.62;26.52;97661.09;6197129;28;20605;-69
2023/09/22 10:07:44;;;;;;;5.03;4.35;;;;;;;27.66;27.80;97660.41;6197371;28;20057;-69
2023/09/22 10:10:53;;;;;;;8.40;4.32;;;;;;;27.56;27.80;97661.72;6195268;28;20498;-69
2023/09/22 10:14:00;;;;;;;5.65;4.28;;;;;;;29.00;26.28;97652.63;6197232;28;20137;-70
2023/09/22 10:17:21;;;;;;;4.72;3.42;;;;;;;30.45;24.44;97663.56;6196303;28;20084;-68
2023/09/22 10:20:44;;;;;;;6.95;3.80;;;;;;;29.31;25.86;97654.13;6196933;28;20042;-68
2023/09/22 10:24:29;;;;;;;6.72;4.30;;;;;;;27.79;27.67;97658.88;6197179;28;20046;-69
2023/09/22 10:27:59;;;;;;;6.30;3.97;;;;;;;26.80;29.08;97649.16;6197168;28;20133;-70
2023/09/22 10:31:04;;;;;;;11.63;5.50;;;;;;;26.70;29.34;97647.75;6196327;28;20046;-69
2023/09/22 10:34:47;;;;;;;4.10;3.50;;;;;;;27.35;28.41;97630.06;6196472;28;20045;-70
2023/09/22 10:38:02;;;;;;;8.57;3.90;;;;;;;26.85;29.10;97654.84;6196705;28;20050;-68
2023/09/22 10:41:06;;;;;;;9.48;4.57;;;;;;;25.83;30.80;97656.91;6196590;28;20046;-70
2023/09/22 10:44:09;;;;;;;4.75;4.00;;;;;;;25.24;31.85;97661.84;6195365;28;20050;-68
2023/09/22 10:47:11;;;;;;;7.07;4.45;;;;;;;24.99;32.03;97659.16;6196275;28;20042;-68
2023/09/22 10:50:27;;;;;;;7.00;4.47;;;;;;;25.27;31.49;97658.81;6196269;28;20061;-69
2023/09/22 10:53:34;;;;;;;14.82;8.65;;;;;;;26.81;29.70;97660.81;6196204;28;20046;-69
2023/09/22 10:56:37;;;;;;;7.55;5.57;;;;;;;28.32;27.58;97664.91;6196478;28;20046;-69
2023/09/22 10:59:41;;;;;;;6.70;5.15;;;;;;;29.69;25.75;97667.25;6195818;28;20050;-70
2023/09/22 11:02:44;;;;;;;9.35;5.88;;;;;;;29.91;25.10;97638.97;6195249;28;20518;-68
2023/09/22 11:05:59;;;;;;;7.13;5.43;;;;;;;30.67;24.72;97675.91;6196101;28;20039;-70
2023/09/22 11:09:05;;;;;;;7.20;4.75;;;;;;;31.46;23.51;97680.50;6195082;28;20053;-69
2023/09/22 11:12:11;;;;;;;7.30;4.00;;;;;;;32.02;22.64;97679.09;6196095;28;20054;-69
2023/09/22 11:15:21;;;;;;;7.60;4.38;;;;;;;31.76;23.20;97691.75;6195732;28;20054;-69
2023/09/22 11:18:33;;;;;;;6.65;4.65;;;;;;;30.12;25.33;97683.28;6195894;28;20054;-69
2023/09/22 11:21:42;;;;;;;6.75;4.50;;;;;;;27.87;27.74;97678.56;6195768;28;20426;-69
2023/09/22 11:24:48;;;;;;;8.10;5.35;;;;;;;26.27;30.53;97674.34;6195113;28;20076;-69
2023/09/22 11:27:55;;;;;;;7.72;5.30;;;;;;;25.42;31.39;97675.94;6194264;28;20050;-69
2023/09/22 11:31:11;;;;;;;8.00;5.07;;;;;;;24.99;32.79;97680.72;6194908;28;20569;-69
2023/09/22 11:34:21;;;;;;;9.52;5.82;;;;;;;24.61;33.38;97683.09;6195230;28;20042;-70
2023/09/22 11:37:31;;;;;;;9.43;5.28;;;;;;;24.27;33.76;97674.31;6195446;28;20541;-70
2023/09/22 11:40:39;;;;;;;8.73;5.70;;;;;;;23.93;34.25;97669.88;6194221;28;20042;-68
2023/09/22 11:43:42;;;;;;;8.45;5.75;;;;;;;23.80;34.57;97678.41;6195266;28;20133;-70
2023/09/22 11:46:47;;;;;;;6.50;4.57;;;;;;;23.70;34.76;97678.56;6195164;28;20054;-70
2023/09/22 11:49:48;;;;;;;6.35;4.30;;;;;;;23.61;34.68;97684.88;6194514;28;20054;-69
2023/09/22 11:52:52;;;;;;;7.18;4.57;;;;;;;23.56;35.14;97681.81;6194917;28;20050;-69
2023/09/22 11:55:58;;;;;;;13.50;4.68;;;;;;;23.36;35.28;97680.38;6195077;28;20043;-68
2023/09/22 11:59:09;;;;;;;8.20;4.93;;;;;;;23.07;36.18;97681.53;6194759;28;20137;-70
2023/09/22 12:02:13;;;;;;;8.77;5.00;;;;;;;22.86;36.54;97680.03;6194940;28;20104;-69
2023/09/22 12:05:17;;;;;;;5.90;5.05;;;;;;;22.77;36.84;97672.09;6195073;28;20474;-69
2023/09/22 12:08:21;;;;;;;6.22;4.60;;;;;;;22.47;37.19;97659.97;6194729;28;20046;-69
2023/09/22 12:11:25;;;;;;;7.10;6.00;;;;;;;22.46;37.44;97674.38;6194944;28;20514;-69
2023/09/22 12:14:29;;;;;;;8.40;6.90;;;;;;;22.33;37.69;97670.22;6194792;28;20461;-69
2023/09/22 12:17:35;;;;;;;11.00;5.88;;;;;;;22.13;38.30;97682.06;6194819;28;20042;-69
2023/09/22 12:20:37;;;;;;;8.00;5.47;;;;;;;22.02;38.63;97675.09;6195019;28;20167;-70
2023/09/22 12:23:44;;;;;;;8.43;5.20;;;;;;;21.98;38.74;97663.84;6195216;28;20050;-68
2023/09/22 12:26:50;;;;;;;8.40;5.78;;;;;;;21.95;39.03;97674.88;6193815;28;20038;-68
2023/09/22 12:29:51;;;;;;;6.18;4.22;;;;;;;21.86;39.47;97686.50;6194505;28;20077;-68
2023/09/22 12:32:56;;;;;;;8.18;4.60;;;;;;;21.79;39.64;97673.84;6194331;28;20054;-68
2023/09/22 12:35:59;;;;;;;7.88;3.72;;;;;;;21.52;39.89;97680.91;6194456;28;20050;-69
2023/09/22 12:39:03;;;;;;;8.20;3.95;;;;;;;21.41;40.41;97681.09;6194288;28;20050;-69
2023/09/22 12:42:05;;;;;;;7.03;4.13;;;;;;;21.28;40.94;97684.06;6199256;28;20612;-69
2023/09/22 12:45:09;;;;;;;6.72;4.55;;;;;;;21.19;40.99;97682.28;6199196;28;20077;-70
2023/09/22 12:48:12;;;;;;;8.38;4.40;;;;;;;21.10;41.28;97683.16;6199291;28;20498;-70
2023/09/22 12:51:13;;;;;;;7.00;4.20;;;;;;;20.96;41.63;97674.59;6199158;28;20517;-69
2023/09/22 12:54:22;;;;;;;6.95;5.18;;;;;;;20.89;42.23;97660.13;6199113;28;20046;-69
2023/09/22 12:57:24;;;;;;;7.43;4.57;;;;;;;20.84;42.27;97673.09;6197946;28;20046;-69
2023/09/22 13:00:25;;;;;;;6.57;4.38;;;;;;;20.76;42.41;97665.78;6198819;28;20141;-69
2023/09/22 13:03:34;;;;;;;8.45;4.82;;;;;;;20.67;42.63;97668.47;6198676;28;20042;-69
2023/09/22 13:06:40;;;;;;;7.78;4.50;;;;;;;20.50;42.95;97660.16;6198012;28;20057;-68
2023/09/22 13:09:43;;;;;;;6.10;4.28;;;;;;;20.19;43.56;97662.97;6197129;28;20060;-70
2023/09/22 13:12:53;;;;;;;7.15;4.95;;;;;;;20.00;44.31;97662.13;6198410;28;20042;-70
2023/09/22 13:15:57;;;;;;;5.97;4.60;;;;;;;19.81;44.63;97662.94;6198551;28;20038;-70
2023/09/22 13:18:58;;;;;;;6.32;4.45;;;;;;;19.76;44.93;97674.06;6197963;28;20034;-70
2023/09/22 13:22:03;;;;;;;7.35;5.00;;;;;;;19.81;44.64;97677.13;6198364;28;20057;-69
2023/09/22 13:25:08;;;;;;;6.35;5.13;;;;;;;19.94;44.47;97687.56;6198734;28;20042;-69
2023/09/22 13:28:16;;;;;;;8.88;4.90;;;;;;;20.14;44.27;97697.28;6198598;28;20116;-70
2023/09/22 13:31:24;;;;;;;8.20;4.65;;;;;;;20.17;44.34;97707.69;6198117;28;20053;-69
2023/09/22 13:34:36;;;;;;;4.97;4.45;;;;;;;20.13;44.46;97706.31;6197554;28;20113;-69
2023/09/22 13:37:37;;;;;;;7.20;4.60;;;;;;;20.01;44.37;97701.22;6198087;28;20034;-69
2023/09/22 13:40:44;;;;;;;6.97;4.00;;;;;;;19.83;44.80;97695.69;6198014;28;20046;-69
2023/09/22 13:43:45;;;;;;;5.88;4.13;;;;;;;19.61;45.30;97696.72;6195781;28;20645;-69
2023/09/22 13:46:51;;;;;;;6.20;4.13;;;;;;;19.49;45.94;97690.66;6197869;28;20046;-69
2023/09/22 13:49:58;;;;;;;5.75;4.40;;;;;;;19.18;46.21;97692.50;6197468;28;20046;-69
2023/09/22 13:53:02;;;;;;;7.55;4.80;;;;;;;19.00;47.04;97705.59;6197466;28;20536;-69
2023/09/22 13:56:17;;;;;;;7.38;4.68;;;;;;;18.92;47.13;97702.75;6197738;28;20042;-69
2023/09/22 13:59:21;;;;;;;7.53;5.15;;;;;;;18.78;47.69;97715.44;6197660;28;20077;-69
2023/09/22 14:02:26;;;;;;;6.57;4.20;;;;;;;18.73;47.87;97709.59;6196724;28;20054;-69
2023/09/22 14:05:31;;;;;;;9.40;5.75;;;;;;;18.75;48.14;97713.03;6196741;28;20050;-69
2023/09/22 14:08:33;;;;;;;7.57;5.00;;;;;;;18.64;48.20;97710.38;6196705;28;20054;-69
2023/09/22 14:11:42;;;;;;;13.80;9.85;;;;;;;18.55;48.46;97719.16;6197148;28;20050;-69
2023/09/22 14:14:44;;;;;;;36.63;20.80;;;;;;;18.51;49.13;97731.91;6197273;28;20565;-69
2023/09/22 14:17:52;;;;;;;25.63;14.68;;;;;;;18.47;48.97;97729.63;6197036;28;20050;-69
2023/09/22 14:20:56;;;;;;;23.00;14.07;;;;;;;18.47;49.38;97740.28;6196687;28;20049;-70
2023/09/22 14:24:01;;;;;;;17.33;11.88;;;;;;;18.45;49.39;97736.88;6196620;28;20066;-69
2023/09/22 14:27:05;;;;;;;17.48;10.05;;;;;;;18.34;49.72;97724.44;6196839;28;20043;-69
2023/09/22 14:30:14;;;;;;;17.50;8.50;;;;;;;18.21;49.74;97719.31;6196450;28;20458;-69
2023/09/22 14:33:16;;;;;;;8.23;6.60;;;;;;;18.12;50.47;97731.56;6196434;28;20141;-68